sensor_id;sensor_type;location;lat;lon;timestamp;pressure;altitude;pressure_sealevel;temperature;humidity
86576;BME280;77216;53.732;9.462;2024-03-17T00:01:38;102433.59;;;6.60;67.73
86576;BME280;77216;53.732;9.462;2024-03-17T00:04:03;102430.88;;;6.61;67.59
86576;BME280;77216;53.732;9.462;2024-03-17T00:06:30;102431.81;;;6.60;67.87
86576;BME280;77216;53.732;9.462;2024-03-17T00:08:55;102432.41;;;6.50;68.62
86576;BME280;77216;53.732;9.462;2024-03-17T00:11:21;102436.91;;;6.47;68.63
86576;BME280;77216;53.732;9.462;2024-03-17T00:13:46;102431.38;;;6.52;68.22
86576;BME280;77216;53.732;9.462;2024-03-17T00:16:12;102434.28;;;6.47;68.68
86576;BME280;77216;53.732;9.462;2024-03-17T00:18:39;102438.03;;;6.43;68.73
86576;BME280;77216;53.732;9.462;2024-03-17T00:21:04;102444.16;;;6.44;68.69
86576;BME280;77216;53.732;9.462;2024-03-17T00:23:30;102448.59;;;6.43;68.62
86576;BME280;77216;53.732;9.462;2024-03-17T00:25:55;102450.63;;;6.38;68.60
86576;BME280;77216;53.732;9.462;2024-03-17T00:28:20;102459.47;;;6.37;68.69
86576;BME280;77216;53.732;9.462;2024-03-17T00:30:46;102461.44;;;6.34;68.66
86576;BME280;77216;53.732;9.462;2024-03-17T00:33:11;102459.72;;;6.33;68.67
86576;BME280;77216;53.732;9.462;2024-03-17T00:35:37;102462.44;;;6.31;68.34
86576;BME280;77216;53.732;9.462;2024-03-17T00:38:02;102461.69;;;6.29;68.25
86576;BME280;77216;53.732;9.462;2024-03-17T00:40:35;102467.44;;;6.20;68.54
86576;BME280;77216;53.732;9.462;2024-03-17T00:43:00;102464.75;;;6.21;68.49
86576;BME280;77216;53.732;9.462;2024-03-17T00:45:25;102463.03;;;6.20;68.47
86576;BME280;77216;53.732;9.462;2024-03-17T00:47:51;102463.91;;;6.21;68.55
86576;BME280;77216;53.732;9.462;2024-03-17T00:50:16;102468.03;;;6.09;68.68
86576;BME280;77216;53.732;9.462;2024-03-17T00:52:42;102462.00;;;6.07;68.68
86576;BME280;77216;53.732;9.462;2024-03-17T00:55:07;102463.00;;;6.05;68.94
86576;BME280;77216;53.732;9.462;2024-03-17T00:57:34;102463.97;;;6.03;68.96
86576;BME280;77216;53.732;9.462;2024-03-17T00:59:59;102467.75;;;5.98;69.10
86576;BME280;77216;53.732;9.462;2024-03-17T01:02:25;102470.91;;;6.05;69.02
86576;BME280;77216;53.732;9.462;2024-03-17T01:04:50;102458.50;;;6.07;69.19
86576;BME280;77216;53.732;9.462;2024-03-17T01:07:15;102457.91;;;6.01;69.12
86576;BME280;77216;53.732;9.462;2024-03-17T01:09:41;102459.19;;;6.10;68.75
86576;BME280;77216;53.732;9.462;2024-03-17T01:12:06;102463.53;;;6.11;68.76
86576;BME280;77216;53.732;9.462;2024-03-17T01:14:32;102466.00;;;6.14;68.45
86576;BME280;77216;53.732;9.462;2024-03-17T01:16:59;102460.81;;;6.13;68.47
86576;BME280;77216;53.732;9.462;2024-03-17T01:19:25;102469.31;;;6.18;68.26
86576;BME280;77216;53.732;9.462;2024-03-17T01:21:52;102467.63;;;6.17;68.16
86576;BME280;77216;53.732;9.462;2024-03-17T01:24:17;102467.44;;;6.20;68.08
86576;BME280;77216;53.732;9.462;2024-03-17T01:26:43;102469.84;;;6.24;67.95
86576;BME280;77216;53.732;9.462;2024-03-17T01:29:09;102469.84;;;6.24;67.95
86576;BME280;77216;53.732;9.462;2024-03-17T01:31:34;102473.31;;;6.25;68.12
86576;BME280;77216;53.732;9.462;2024-03-17T01:34:00;102479.53;;;6.24;68.08
86576;BME280;77216;53.732;9.462;2024-03-17T01:36:26;102470.25;;;6.17;67.98
86576;BME280;77216;53.732;9.462;2024-03-17T01:38:51;102477.16;;;6.19;67.93
86576;BME280;77216;53.732;9.462;2024-03-17T01:41:17;102472.31;;;6.28;67.68
86576;BME280;77216;53.732;9.462;2024-03-17T01:43:42;102469.31;;;6.18;68.30
86576;BME280;77216;53.732;9.462;2024-03-17T01:46:13;102474.09;;;6.11;68.50
86576;BME280;77216;53.732;9.462;2024-03-17T01:48:41;102477.63;;;6.10;68.50
86576;BME280;77216;53.732;9.462;2024-03-17T01:51:08;102472.38;;;6.10;68.33
86576;BME280;77216;53.732;9.462;2024-03-17T01:53:35;102466.59;;;6.19;68.02
86576;BME280;77216;53.732;9.462;2024-03-17T01:56:02;102461.69;;;6.29;67.67
86576;BME280;77216;53.732;9.462;2024-03-17T01:58:30;102465.16;;;6.30;67.61
86576;BME280;77216;53.732;9.462;2024-03-17T02:00:56;102468.88;;;6.25;67.96
86576;BME280;77216;53.732;9.462;2024-03-17T02:03:21;102471.69;;;6.22;67.91
86576;BME280;77216;53.732;9.462;2024-03-17T02:05:47;102464.91;;;6.18;68.24
86576;BME280;77216;53.732;9.462;2024-03-17T02:08:13;102473.91;;;6.14;68.04
86576;BME280;77216;53.732;9.462;2024-03-17T02:10:38;102464.88;;;6.02;68.75
86576;BME280;77216;53.732;9.462;2024-03-17T02:13:04;102463.00;;;6.05;68.62
86576;BME280;77216;53.732;9.462;2024-03-17T02:15:31;102467.34;;;6.06;68.26
86576;BME280;77216;53.732;9.462;2024-03-17T02:17:56;102471.75;;;6.05;68.55
86576;BME280;77216;53.732;9.462;2024-03-17T02:20:21;102472.59;;;6.06;68.31
86576;BME280;77216;53.732;9.462;2024-03-17T02:23:10;102465.56;;;6.06;68.22
86576;BME280;77216;53.732;9.462;2024-03-17T02:25:36;102466.84;;;5.99;68.30
86576;BME280;77216;53.732;9.462;2024-03-17T02:28:01;102466.91;;;5.97;68.09
86576;BME280;77216;53.732;9.462;2024-03-17T02:30:27;102459.78;;;5.99;68.06
86576;BME280;77216;53.732;9.462;2024-03-17T02:32:53;102464.97;;;6.01;68.05
86576;BME280;77216;53.732;9.462;2024-03-17T02:35:21;102466.84;;;5.99;68.11
86576;BME280;77216;53.732;9.462;2024-03-17T02:37:49;102473.19;;;5.95;68.27
86576;BME280;77216;53.732;9.462;2024-03-17T02:40:14;102474.81;;;5.97;67.89
86576;BME280;77216;53.732;9.462;2024-03-17T02:42:41;102474.50;;;6.03;67.88
86576;BME280;77216;53.732;9.462;2024-03-17T02:45:08;102477.63;;;6.10;67.61
86576;BME280;77216;53.732;9.462;2024-03-17T02:47:34;102476.63;;;6.13;67.57
86576;BME280;77216;53.732;9.462;2024-03-17T02:50:00;102478.84;;;6.20;67.21
86576;BME280;77216;53.732;9.462;2024-03-17T02:52:25;102476.91;;;6.24;66.96
86576;BME280;77216;53.732;9.462;2024-03-17T02:54:51;102474.94;;;6.28;67.04
86576;BME280;77216;53.732;9.462;2024-03-17T02:57:18;102473.06;;;6.30;66.95
86576;BME280;77216;53.732;9.462;2024-03-17T02:59:43;102482.00;;;6.27;67.29
86576;BME280;77216;53.732;9.462;2024-03-17T03:02:10;102479.63;;;6.22;67.48
86576;BME280;77216;53.732;9.462;2024-03-17T03:04:36;102486.31;;;6.12;68.08
86576;BME280;77216;53.732;9.462;2024-03-17T03:07:01;102484.34;;;6.00;68.45
86576;BME280;77216;53.732;9.462;2024-03-17T03:09:26;102479.00;;;6.01;68.48
86576;BME280;77216;53.732;9.462;2024-03-17T03:11:57;102487.41;;;6.08;68.22
86576;BME280;77216;53.732;9.462;2024-03-17T03:14:23;102489.66;;;6.16;68.10
86576;BME280;77216;53.732;9.462;2024-03-17T03:16:49;102488.47;;;6.21;68.18
86576;BME280;77216;53.732;9.462;2024-03-17T03:19:15;102490.00;;;6.25;68.08
86576;BME280;77216;53.732;9.462;2024-03-17T03:21:40;102495.78;;;6.32;68.24
86576;BME280;77216;53.732;9.462;2024-03-17T03:24:06;102494.16;;;6.30;68.23
86576;BME280;77216;53.732;9.462;2024-03-17T03:26:31;102493.25;;;6.31;68.66
86576;BME280;77216;53.732;9.462;2024-03-17T03:28:56;102499.44;;;6.30;68.55
86576;BME280;77216;53.732;9.462;2024-03-17T03:31:22;102493.31;;;6.29;68.62
86576;BME280;77216;53.732;9.462;2024-03-17T03:33:47;102500.16;;;6.33;68.35
86576;BME280;77216;53.732;9.462;2024-03-17T03:36:14;102487.69;;;6.35;68.50
86576;BME280;77216;53.732;9.462;2024-03-17T03:38:41;102494.34;;;6.42;68.40
86576;BME280;77216;53.732;9.462;2024-03-17T03:43:33;102489.94;;;6.59;68.26
86576;BME280;77216;53.732;9.462;2024-03-17T03:45:59;102489.69;;;6.63;68.04
86576;BME280;77216;53.732;9.462;2024-03-17T03:48:25;102494.78;;;6.66;67.75
86576;BME280;77216;53.732;9.462;2024-03-17T03:50:50;102500.81;;;6.68;67.87
86576;BME280;77216;53.732;9.462;2024-03-17T03:53:16;102490.28;;;6.68;67.85
86576;BME280;77216;53.732;9.462;2024-03-17T03:55:41;102487.63;;;6.68;67.60
86576;BME280;77216;53.732;9.462;2024-03-17T03:58:07;102487.63;;;6.68;67.63
86576;BME280;77216;53.732;9.462;2024-03-17T04:00:32;102488.56;;;6.67;67.52
86576;BME280;77216;53.732;9.462;2024-03-17T04:02:58;102495.72;;;6.65;67.53
86576;BME280;77216;53.732;9.462;2024-03-17T04:05:24;102491.47;;;6.63;67.40
86576;BME280;77216;53.732;9.462;2024-03-17T04:07:49;102497.59;;;6.63;67.30
86576;BME280;77216;53.732;9.462;2024-03-17T04:10:15;102501.34;;;6.59;67.49
86576;BME280;77216;53.732;9.462;2024-03-17T04:12:44;102507.63;;;6.57;67.34
86576;BME280;77216;53.732;9.462;2024-03-17T04:15:09;102502.53;;;6.54;67.36
86576;BME280;77216;53.732;9.462;2024-03-17T04:17:39;102500.13;;;6.49;67.31
86576;BME280;77216;53.732;9.462;2024-03-17T04:20:05;102501.94;;;6.49;67.16
86576;BME280;77216;53.732;9.462;2024-03-17T04:22:33;102507.78;;;6.38;67.97
86576;BME280;77216;53.732;9.462;2024-03-17T04:24:59;102500.72;;;6.22;68.97
86576;BME280;77216;53.732;9.462;2024-03-17T04:27:25;102511.78;;;6.13;69.18
86576;BME280;77216;53.732;9.462;2024-03-17T04:29:55;102507.59;;;6.09;69.49
86576;BME280;77216;53.732;9.462;2024-03-17T04:32:21;102504.09;;;6.09;69.33
86576;BME280;77216;53.732;9.462;2024-03-17T04:34:47;102509.28;;;6.10;69.26
86576;BME280;77216;53.732;9.462;2024-03-17T04:37:12;102517.09;;;6.12;69.33
86576;BME280;77216;53.732;9.462;2024-03-17T04:39:42;102514.47;;;6.12;69.65
86576;BME280;77216;53.732;9.462;2024-03-17T04:42:13;102511.84;;;6.12;69.47
86576;BME280;77216;53.732;9.462;2024-03-17T04:44:42;102511.06;;;6.10;69.47
86576;BME280;77216;53.732;9.462;2024-03-17T04:47:08;102517.41;;;6.06;69.61
86576;BME280;77216;53.732;9.462;2024-03-17T04:49:42;102515.72;;;6.05;69.88
86576;BME280;77216;53.732;9.462;2024-03-17T04:52:09;102520.31;;;6.01;69.87
86576;BME280;77216;53.732;9.462;2024-03-17T04:54:35;102524.97;;;5.96;69.87
86576;BME280;77216;53.732;9.462;2024-03-17T04:57:00;102520.56;;;5.79;70.23
86576;BME280;77216;53.732;9.462;2024-03-17T04:59:26;102521.81;;;5.72;70.24
86576;BME280;77216;53.732;9.462;2024-03-17T05:01:53;102531.78;;;5.65;70.40
86576;BME280;77216;53.732;9.462;2024-03-17T05:04:18;102528.53;;;5.60;70.49
86576;BME280;77216;53.732;9.462;2024-03-17T05:06:44;102528.63;;;5.58;70.41
86576;BME280;77216;53.732;9.462;2024-03-17T05:09:22;102524.97;;;5.61;70.29
86576;BME280;77216;53.732;9.462;2024-03-17T05:11:49;102526.91;;;5.57;70.55
86576;BME280;77216;53.732;9.462;2024-03-17T05:14:16;102526.84;;;5.59;70.62
86576;BME280;77216;53.732;9.462;2024-03-17T05:16:43;102530.34;;;5.59;70.65
86576;BME280;77216;53.732;9.462;2024-03-17T05:19:08;102533.81;;;5.60;70.72
86576;BME280;77216;53.732;9.462;2024-03-17T05:21:34;102542.41;;;5.64;70.49
86576;BME280;77216;53.732;9.462;2024-03-17T05:24:01;102541.50;;;5.65;70.52
86576;BME280;77216;53.732;9.462;2024-03-17T05:26:27;102546.66;;;5.66;70.36
86576;BME280;77216;53.732;9.462;2024-03-17T05:28:52;102544.97;;;5.65;70.54
86576;BME280;77216;53.732;9.462;2024-03-17T05:31:19;102545.75;;;5.67;70.66
86576;BME280;77216;53.732;9.462;2024-03-17T05:33:46;102545.75;;;5.67;70.43
86576;BME280;77216;53.732;9.462;2024-03-17T05:36:11;102549.22;;;5.68;70.56
86576;BME280;77216;53.732;9.462;2024-03-17T05:38:37;102548.22;;;5.70;70.63
86576;BME280;77216;53.732;9.462;2024-03-17T05:41:07;102548.94;;;5.74;70.46
86576;BME280;77216;53.732;9.462;2024-03-17T05:43:35;102555.81;;;5.76;70.59
86576;BME280;77216;53.732;9.462;2024-03-17T05:46:12;102539.84;;;5.79;70.76
86576;BME280;77216;53.732;9.462;2024-03-17T05:48:39;102551.06;;;5.83;70.38
86576;BME280;77216;53.732;9.462;2024-03-17T05:51:09;102551.56;;;5.91;70.50
86576;BME280;77216;53.732;9.462;2024-03-17T05:53:35;102558.25;;;5.98;70.30
86576;BME280;77216;53.732;9.462;2024-03-17T05:56:03;102558.25;;;5.98;70.09
86576;BME280;77216;53.732;9.462;2024-03-17T05:58:29;102560.31;;;5.92;70.33
86576;BME280;77216;53.732;9.462;2024-03-17T06:00:55;102566.44;;;5.75;70.53
86576;BME280;77216;53.732;9.462;2024-03-17T06:03:21;102568.84;;;5.62;71.03
86576;BME280;77216;53.732;9.462;2024-03-17T06:05:47;102569.91;;;5.58;71.08
86576;BME280;77216;53.732;9.462;2024-03-17T06:08:13;102571.25;;;5.49;71.37
86576;BME280;77216;53.732;9.462;2024-03-17T06:10:44;102571.25;;;5.49;71.48
86576;BME280;77216;53.732;9.462;2024-03-17T06:13:09;102573.00;;;5.49;71.41
86576;BME280;77216;53.732;9.462;2024-03-17T06:15:41;102572.16;;;5.48;71.51
86576;BME280;77216;53.732;9.462;2024-03-17T06:18:08;102570.53;;;5.46;71.69
86576;BME280;77216;53.732;9.462;2024-03-17T06:20:43;102571.25;;;5.49;71.56
86576;BME280;77216;53.732;9.462;2024-03-17T06:23:08;102573.09;;;5.47;71.69
86576;BME280;77216;53.732;9.462;2024-03-17T06:25:52;102566.81;;;5.50;72.17
86576;BME280;77216;53.732;9.462;2024-03-17T06:28:19;102567.66;;;5.50;72.04
86576;BME280;77216;53.732;9.462;2024-03-17T06:30:46;102573.66;;;5.54;71.53
86576;BME280;77216;53.732;9.462;2024-03-17T06:33:19;102569.13;;;5.56;71.75
86576;BME280;77216;53.732;9.462;2024-03-17T06:35:44;102561.78;;;5.63;71.56
86576;BME280;77216;53.732;9.462;2024-03-17T06:38:11;102572.78;;;5.71;71.40
86576;BME280;77216;53.732;9.462;2024-03-17T06:40:37;102578.59;;;5.77;71.40
86576;BME280;77216;53.732;9.462;2024-03-17T06:43:03;102583.63;;;5.82;70.80
86576;BME280;77216;53.732;9.462;2024-03-17T06:45:29;102589.59;;;5.86;71.01
86576;BME280;77216;53.732;9.462;2024-03-17T06:47:54;102586.50;;;5.77;71.41
86576;BME280;77216;53.732;9.462;2024-03-17T06:50:21;102586.13;;;5.68;71.49
86576;BME280;77216;53.732;9.462;2024-03-17T06:52:47;102585.19;;;5.69;71.53
86576;BME280;77216;53.732;9.462;2024-03-17T06:55:12;102585.19;;;5.69;71.64
86576;BME280;77216;53.732;9.462;2024-03-17T06:57:38;102582.69;;;5.66;71.95
86576;BME280;77216;53.732;9.462;2024-03-17T07:00:03;102588.19;;;5.61;71.83
86576;BME280;77216;53.732;9.462;2024-03-17T07:02:31;102596.19;;;5.59;71.92
86576;BME280;77216;53.732;9.462;2024-03-17T07:04:57;102598.03;;;5.57;71.92
86576;BME280;77216;53.732;9.462;2024-03-17T07:07:23;102600.44;;;5.62;71.76
86576;BME280;77216;53.732;9.462;2024-03-17T07:09:51;102599.34;;;5.66;71.72
86576;BME280;77216;53.732;9.462;2024-03-17T07:12:16;102600.06;;;5.70;71.47
86576;BME280;77216;53.732;9.462;2024-03-17T07:14:42;102590.16;;;5.75;71.50
86576;BME280;77216;53.732;9.462;2024-03-17T07:17:07;102596.88;;;5.80;71.65
86576;BME280;77216;53.732;9.462;2024-03-17T07:19:32;102597.44;;;5.87;71.34
86576;BME280;77216;53.732;9.462;2024-03-17T07:21:59;102590.97;;;5.93;71.27
86576;BME280;77216;53.732;9.462;2024-03-17T07:24:24;102593.41;;;5.97;71.24
86576;BME280;77216;53.732;9.462;2024-03-17T07:26:50;102593.41;;;5.97;71.15
86576;BME280;77216;53.732;9.462;2024-03-17T07:29:16;102594.13;;;6.01;71.01
86576;BME280;77216;53.732;9.462;2024-03-17T07:31:42;102602.66;;;6.06;70.99
86576;BME280;77216;53.732;9.462;2024-03-17T07:34:07;102603.41;;;6.08;70.89
86576;BME280;77216;53.732;9.462;2024-03-17T07:36:33;102603.25;;;6.11;70.97
86576;BME280;77216;53.732;9.462;2024-03-17T07:38:58;102585.59;;;6.13;70.87
86576;BME280;77216;53.732;9.462;2024-03-17T07:41:24;102595.13;;;6.16;70.81
86576;BME280;77216;53.732;9.462;2024-03-17T07:43:49;102595.13;;;6.16;71.00
86576;BME280;77216;53.732;9.462;2024-03-17T07:46:15;102585.50;;;6.15;71.03
86576;BME280;77216;53.732;9.462;2024-03-17T07:48:41;102587.28;;;6.14;71.28
86576;BME280;77216;53.732;9.462;2024-03-17T07:51:09;102591.59;;;6.15;71.24
86576;BME280;77216;53.732;9.462;2024-03-17T07:53:36;102590.69;;;6.16;71.06
86576;BME280;77216;53.732;9.462;2024-03-17T07:56:09;102590.34;;;6.22;70.90
86576;BME280;77216;53.732;9.462;2024-03-17T07:58:36;102588.56;;;6.23;71.09
86576;BME280;77216;53.732;9.462;2024-03-17T08:03:36;102600.50;;;6.30;70.52
86576;BME280;77216;53.732;9.462;2024-03-17T08:06:05;102600.34;;;6.33;70.41
86576;BME280;77216;53.732;9.462;2024-03-17T08:08:31;102603.75;;;6.35;70.20
86576;BME280;77216;53.732;9.462;2024-03-17T08:10:57;102604.44;;;6.39;70.24
86576;BME280;77216;53.732;9.462;2024-03-17T08:13:23;102595.53;;;6.41;70.02
86576;BME280;77216;53.732;9.462;2024-03-17T08:15:56;102599.19;;;6.39;70.64
86576;BME280;77216;53.732;9.462;2024-03-17T08:18:22;102593.72;;;6.42;70.74
86576;BME280;77216;53.732;9.462;2024-03-17T08:20:47;102596.91;;;6.49;70.63
86576;BME280;77216;53.732;9.462;2024-03-17T08:23:13;102600.97;;;6.54;70.34
86576;BME280;77216;53.732;9.462;2024-03-17T08:25:38;102595.63;;;6.56;70.39
86576;BME280;77216;53.732;9.462;2024-03-17T08:28:05;102588.56;;;6.56;70.06
86576;BME280;77216;53.732;9.462;2024-03-17T08:30:30;102595.47;;;6.59;69.90
86576;BME280;77216;53.732;9.462;2024-03-17T08:32:56;102592.81;;;6.59;69.62
86576;BME280;77216;53.732;9.462;2024-03-17T08:35:22;102585.94;;;6.56;69.80
86576;BME280;77216;53.732;9.462;2024-03-17T08:37:47;102594.44;;;6.61;69.76
86576;BME280;77216;53.732;9.462;2024-03-17T08:40:13;102598.63;;;6.65;69.48
86576;BME280;77216;53.732;9.462;2024-03-17T08:42:39;102593.00;;;6.72;69.06
86576;BME280;77216;53.732;9.462;2024-03-17T08:45:06;102584.78;;;6.78;68.78
86576;BME280;77216;53.732;9.462;2024-03-17T08:47:31;102592.59;;;6.79;68.55
86576;BME280;77216;53.732;9.462;2024-03-17T08:49:57;102594.13;;;6.83;68.12
86576;BME280;77216;53.732;9.462;2024-03-17T08:52:23;102589.53;;;6.87;68.10
86576;BME280;77216;53.732;9.462;2024-03-17T08:54:49;102592.94;;;6.89;68.15
86576;BME280;77216;53.732;9.462;2024-03-17T08:57:17;102605.09;;;6.92;68.01
86576;BME280;77216;53.732;9.462;2024-03-17T08:59:46;102603.16;;;6.95;67.72
86576;BME280;77216;53.732;9.462;2024-03-17T09:02:13;102595.00;;;7.00;67.10
86576;BME280;77216;53.732;9.462;2024-03-17T09:04:43;102599.31;;;7.01;66.09
86576;BME280;77216;53.732;9.462;2024-03-17T09:07:08;102597.72;;;6.98;66.00
86576;BME280;77216;53.732;9.462;2024-03-17T09:09:34;102604.44;;;7.04;65.98
86576;BME280;77216;53.732;9.462;2024-03-17T09:11:59;102604.09;;;7.10;65.17
86576;BME280;77216;53.732;9.462;2024-03-17T09:14:25;102595.22;;;7.11;64.79
86576;BME280;77216;53.732;9.462;2024-03-17T09:16:50;102596.50;;;7.20;64.50
86576;BME280;77216;53.732;9.462;2024-03-17T09:19:15;102598.03;;;7.24;63.71
86576;BME280;77216;53.732;9.462;2024-03-17T09:21:41;102592.47;;;7.28;63.04
86576;BME280;77216;53.732;9.462;2024-03-17T09:36:59;102602.69;;;7.50;60.03
86576;BME280;77216;53.732;9.462;2024-03-17T09:39:26;102610.16;;;7.58;59.79
86576;BME280;77216;53.732;9.462;2024-03-17T09:41:51;102609.03;;;7.62;59.62
86576;BME280;77216;53.732;9.462;2024-03-17T09:44:17;102608.78;;;7.67;59.30
86576;BME280;77216;53.732;9.462;2024-03-17T09:46:42;102601.59;;;7.69;58.22
86576;BME280;77216;53.732;9.462;2024-03-17T09:49:25;102605.44;;;7.79;59.17
86576;BME280;77216;53.732;9.462;2024-03-17T09:51:52;102603.34;;;7.84;58.86
86576;BME280;77216;53.732;9.462;2024-03-17T09:55:39;102603.94;;;7.89;58.14
86576;BME280;77216;53.732;9.462;2024-03-17T09:58:04;102608.25;;;7.90;57.37
86576;BME280;77216;53.732;9.462;2024-03-17T10:00:31;102600.63;;;8.00;58.14
86576;BME280;77216;53.732;9.462;2024-03-17T10:02:56;102611.50;;;8.10;57.62
86576;BME280;77216;53.732;9.462;2024-03-17T10:05:24;102606.81;;;8.15;58.40
86576;BME280;77216;53.732;9.462;2024-03-17T10:07:52;102607.19;;;8.23;57.77
86576;BME280;77216;53.732;9.462;2024-03-17T10:10:20;102611.44;;;8.26;57.30
86576;BME280;77216;53.732;9.462;2024-03-17T10:12:50;102600.50;;;8.32;57.27
86576;BME280;77216;53.732;9.462;2024-03-17T10:15:16;102603.78;;;8.35;56.69
86576;BME280;77216;53.732;9.462;2024-03-17T10:17:43;102603.63;;;8.38;56.66
86576;BME280;77216;53.732;9.462;2024-03-17T10:20:12;102607.72;;;8.44;56.45
86576;BME280;77216;53.732;9.462;2024-03-17T10:23:00;102613.38;;;8.52;56.44
86576;BME280;77216;53.732;9.462;2024-03-17T10:25:27;102616.56;;;8.57;56.20
86576;BME280;77216;53.732;9.462;2024-03-17T10:27:54;102615.94;;;8.68;56.37
86576;BME280;77216;53.732;9.462;2024-03-17T10:30:20;102614.28;;;8.80;56.11
86576;BME280;77216;53.732;9.462;2024-03-17T10:32:59;102609.47;;;8.87;56.12
86576;BME280;77216;53.732;9.462;2024-03-17T10:35:34;102617.19;;;8.90;55.59
86576;BME280;77216;53.732;9.462;2024-03-17T10:38:01;102619.19;;;9.00;55.45
86576;BME280;77216;53.732;9.462;2024-03-17T10:40:29;102627.41;;;8.96;54.82
86576;BME280;77216;53.732;9.462;2024-03-17T10:42:55;102626.75;;;8.92;55.04
86576;BME280;77216;53.732;9.462;2024-03-17T10:45:21;102614.53;;;9.04;55.15
86576;BME280;77216;53.732;9.462;2024-03-17T10:47:49;102612.56;;;9.08;54.39
86576;BME280;77216;53.732;9.462;2024-03-17T10:50:20;102611.28;;;9.13;54.72
86576;BME280;77216;53.732;9.462;2024-03-17T11:01:29;102607.81;;;9.40;53.44
86576;BME280;77216;53.732;9.462;2024-03-17T11:12:02;102611.81;;;9.73;53.10
86576;BME280;77216;53.732;9.462;2024-03-17T11:20:17;102611.31;;;10.06;52.42
